createdAt,value
2022-08-26T00:00:00.396Z,883.7
2022-08-26T00:01:00.308Z,883.6
2022-08-26T00:02:00.419Z,883.6
2022-08-26T00:03:00.294Z,883.6
2022-08-26T00:04:00.457Z,883.6
2022-08-26T00:05:00.304Z,883.6
2022-08-26T00:06:00.275Z,883.6
2022-08-26T00:07:00.328Z,883.7
2022-08-26T00:08:00.322Z,883.7
2022-08-26T00:09:00.311Z,883.6
2022-08-26T00:10:00.557Z,883.6
2022-08-26T00:11:00.362Z,883.7
2022-08-26T00:12:00.334Z,883.7
2022-08-26T00:13:00.312Z,883.7
2022-08-26T00:14:00.311Z,883.7
2022-08-26T00:15:00.484Z,883.7
2022-08-26T00:16:00.552Z,883.7
2022-08-26T00:17:00.432Z,883.7
2022-08-26T00:18:00.363Z,883.7
2022-08-26T00:19:00.381Z,883.7
2022-08-26T00:20:00.303Z,883.7
2022-08-26T00:21:00.301Z,883.7
2022-08-26T00:22:00.447Z,883.7
2022-08-26T00:23:00.293Z,883.7
2022-08-26T00:24:00.317Z,883.7
2022-08-26T00:25:00.292Z,883.7
2022-08-26T00:26:00.281Z,883.7
2022-08-26T00:27:00.311Z,883.7
2022-08-26T00:28:00.404Z,883.7
2022-08-26T00:29:00.297Z,883.7
2022-08-26T00:30:00.377Z,883.7
2022-08-26T00:31:00.290Z,883.7
2022-08-26T00:32:00.350Z,883.7
2022-08-26T00:33:00.339Z,883.7
2022-08-26T00:34:00.367Z,883.7
2022-08-26T00:35:00.318Z,883.8
2022-08-26T00:36:00.304Z,883.8
2022-08-26T00:37:00.293Z,883.8
2022-08-26T00:38:00.298Z,883.8
2022-08-26T00:39:00.320Z,883.8
2022-08-26T00:40:00.808Z,883.8
2022-08-26T00:41:00.292Z,883.8
2022-08-26T00:42:00.312Z,883.8
2022-08-26T00:43:00.357Z,883.8
2022-08-26T00:44:00.356Z,883.8
2022-08-26T00:45:00.302Z,883.8
2022-08-26T00:46:00.545Z,883.8
2022-08-26T00:47:00.365Z,883.8
2022-08-26T00:48:00.376Z,883.9
2022-08-26T00:49:00.333Z,883.9
2022-08-26T00:50:00.362Z,883.9
2022-08-26T00:51:00.337Z,883.9
2022-08-26T00:52:00.437Z,883.9
2022-08-26T00:53:00.445Z,883.9
2022-08-26T00:54:00.305Z,883.8
2022-08-26T00:55:00.333Z,883.8
2022-08-26T00:56:00.325Z,883.8
2022-08-26T00:57:00.364Z,883.8
2022-08-26T00:58:00.407Z,883.9
2022-08-26T00:59:00.306Z,883.8
2022-08-26T01:00:00.307Z,883.9
2022-08-26T01:01:00.437Z,883.9
2022-08-26T01:02:00.342Z,883.9
2022-08-26T01:03:00.307Z,883.9
2022-08-26T01:04:00.378Z,883.9
2022-08-26T01:05:00.410Z,883.9
2022-08-26T01:06:00.316Z,883.9
2022-08-26T01:07:00.295Z,883.9
2022-08-26T01:08:00.316Z,883.9
2022-08-26T01:09:00.307Z,884.0
2022-08-26T01:10:00.290Z,884.0
2022-08-26T01:11:00.497Z,884.0
2022-08-26T01:12:00.297Z,884.0
2022-08-26T01:13:00.315Z,884.0
2022-08-26T01:14:00.304Z,884.0
2022-08-26T01:15:00.292Z,884.0
2022-08-26T01:16:00.371Z,884.0
2022-08-26T01:17:00.461Z,884.0
2022-08-26T01:18:00.309Z,884.0
2022-08-26T01:19:00.280Z,884.0
2022-08-26T01:20:00.290Z,884.0
2022-08-26T01:21:00.359Z,884.0
2022-08-26T01:22:00.312Z,884.0
2022-08-26T01:23:05.456Z,884.0
2022-08-26T01:24:00.384Z,884.0
2022-08-26T01:25:00.344Z,884.0
2022-08-26T01:26:00.456Z,884.0
2022-08-26T01:27:00.313Z,884.0
2022-08-26T01:28:00.288Z,884.0
2022-08-26T01:29:00.314Z,884.0
2022-08-26T01:30:00.405Z,884.0
2022-08-26T01:31:00.280Z,884.0
2022-08-26T01:32:00.476Z,884.0
2022-08-26T01:33:00.278Z,884.0
2022-08-26T01:34:00.295Z,884.0
2022-08-26T01:35:00.401Z,884.0
2022-08-26T01:36:00.393Z,884.0
2022-08-26T01:37:00.411Z,884.0
2022-08-26T01:38:00.288Z,884.1
2022-08-26T01:39:00.284Z,884.0
2022-08-26T01:40:00.389Z,884.1
2022-08-26T01:41:00.292Z,884.0
2022-08-26T01:42:03.041Z,884.0
2022-08-26T01:43:00.329Z,884.1
2022-08-26T01:44:00.343Z,884.1
2022-08-26T01:45:00.309Z,884.1
2022-08-26T01:46:00.699Z,884.1
2022-08-26T01:47:00.304Z,884.1
2022-08-26T01:48:00.336Z,884.1
2022-08-26T01:49:00.336Z,884.1
2022-08-26T01:50:00.362Z,884.1
2022-08-26T01:51:00.336Z,884.1
2022-08-26T01:52:00.430Z,884.1
2022-08-26T01:53:00.351Z,884.2
2022-08-26T01:54:00.312Z,884.1
2022-08-26T01:55:00.293Z,884.2
2022-08-26T01:56:00.277Z,884.2
2022-08-26T01:57:00.305Z,884.2
2022-08-26T01:58:00.386Z,884.2
2022-08-26T01:59:00.301Z,884.2
2022-08-26T02:00:00.325Z,884.2
2022-08-26T02:01:00.355Z,884.2
2022-08-26T02:02:00.312Z,884.3
2022-08-26T02:03:00.315Z,884.3
2022-08-26T02:04:00.386Z,884.3
2022-08-26T02:05:00.458Z,884.3
2022-08-26T02:06:00.302Z,884.3
2022-08-26T02:07:00.381Z,884.3
2022-08-26T02:08:00.388Z,884.3
2022-08-26T02:09:00.308Z,884.3
2022-08-26T02:10:00.405Z,884.3
2022-08-26T02:11:00.293Z,884.3
2022-08-26T02:12:00.303Z,884.3
2022-08-26T02:13:00.284Z,884.3
2022-08-26T02:14:00.307Z,884.3
2022-08-26T02:15:00.380Z,884.3
2022-08-26T02:16:00.429Z,884.3
2022-08-26T02:17:00.314Z,884.3
2022-08-26T02:18:00.335Z,884.3
2022-08-26T02:19:00.365Z,884.3
2022-08-26T02:20:00.431Z,884.3
2022-08-26T02:21:00.311Z,884.3
2022-08-26T02:22:00.394Z,884.3
2022-08-26T02:23:00.368Z,884.3
2022-08-26T02:24:00.310Z,884.3
2022-08-26T02:25:00.289Z,884.3
2022-08-26T02:26:00.287Z,884.3
2022-08-26T02:27:00.376Z,884.3
2022-08-26T02:28:00.708Z,884.4
2022-08-26T02:29:00.295Z,884.4
2022-08-26T02:30:00.300Z,884.4
2022-08-26T02:31:00.294Z,884.4
2022-08-26T02:32:00.304Z,884.4
2022-08-26T02:33:00.277Z,884.4
2022-08-26T02:34:00.384Z,884.4
2022-08-26T02:35:00.310Z,884.4
2022-08-26T02:36:00.298Z,884.4
2022-08-26T02:37:00.301Z,884.4
2022-08-26T02:38:00.371Z,884.4
2022-08-26T02:39:00.307Z,884.5
2022-08-26T02:40:00.468Z,884.5
2022-08-26T02:41:00.309Z,884.5
2022-08-26T02:42:00.314Z,884.5
2022-08-26T02:43:00.280Z,884.5
2022-08-26T02:44:00.291Z,884.5
2022-08-26T02:45:00.362Z,884.5
2022-08-26T02:46:02.165Z,884.5
2022-08-26T02:47:00.336Z,884.5
2022-08-26T02:48:00.307Z,884.5
2022-08-26T02:49:00.318Z,884.5
2022-08-26T02:50:00.331Z,884.5
2022-08-26T02:51:00.312Z,884.5
2022-08-26T02:52:00.378Z,884.5
2022-08-26T02:53:00.390Z,884.5
2022-08-26T02:54:00.315Z,884.5
2022-08-26T02:55:00.292Z,884.5
2022-08-26T02:56:00.307Z,884.5
2022-08-26T02:57:00.309Z,884.6
2022-08-26T02:58:00.405Z,884.5
2022-08-26T02:59:00.307Z,884.5
2022-08-26T03:00:00.297Z,884.5
2022-08-26T03:01:00.409Z,884.5
2022-08-26T03:02:00.559Z,884.5
2022-08-26T03:03:00.463Z,884.6
2022-08-26T03:04:00.312Z,884.5
2022-08-26T03:05:02.222Z,884.5
2022-08-26T03:06:00.311Z,884.6
2022-08-26T03:07:00.310Z,884.6
2022-08-26T03:08:00.381Z,884.5
2022-08-26T03:09:00.320Z,884.6
2022-08-26T03:10:00.316Z,884.6
2022-08-26T03:11:01.554Z,884.6
2022-08-26T03:12:00.280Z,884.6
2022-08-26T03:13:00.296Z,884.6
2022-08-26T03:14:00.369Z,884.6
2022-08-26T03:15:00.300Z,884.6
2022-08-26T03:16:00.379Z,884.6
2022-08-26T03:17:00.373Z,884.6
2022-08-26T03:18:00.277Z,884.6
2022-08-26T03:19:00.362Z,884.6
2022-08-26T03:20:00.309Z,884.6
2022-08-26T03:21:00.311Z,884.6
2022-08-26T03:22:00.311Z,884.6
2022-08-26T03:23:00.400Z,884.6
2022-08-26T03:24:00.612Z,884.7
2022-08-26T03:25:00.358Z,884.6
2022-08-26T03:26:00.376Z,884.6
2022-08-26T03:27:00.365Z,884.7
2022-08-26T03:28:00.315Z,884.7
2022-08-26T03:29:00.297Z,884.7
2022-08-26T03:30:00.387Z,884.7
2022-08-26T03:31:00.408Z,884.7
2022-08-26T03:32:00.351Z,884.7
2022-08-26T03:33:00.304Z,884.7
2022-08-26T03:34:00.304Z,884.7
2022-08-26T03:35:00.443Z,884.7
2022-08-26T03:36:00.379Z,884.7
2022-08-26T03:37:00.320Z,884.7
2022-08-26T03:38:00.369Z,884.7
2022-08-26T03:39:00.279Z,884.7
2022-08-26T03:40:00.433Z,884.7
2022-08-26T03:41:00.385Z,884.7
2022-08-26T03:42:00.306Z,884.7
2022-08-26T03:43:00.313Z,884.7
2022-08-26T03:44:01.894Z,884.8
2022-08-26T03:45:00.307Z,884.7
2022-08-26T03:46:00.299Z,884.7
2022-08-26T03:47:00.380Z,884.7
2022-08-26T03:48:00.293Z,884.7
2022-08-26T03:49:00.272Z,884.7
2022-08-26T03:50:00.305Z,884.7
2022-08-26T03:51:00.292Z,884.8
2022-08-26T03:52:00.293Z,884.7
2022-08-26T03:53:00.458Z,884.7
2022-08-26T03:54:00.297Z,884.7
2022-08-26T03:55:00.378Z,884.7
2022-08-26T03:56:00.294Z,884.7
2022-08-26T03:57:00.293Z,884.7
2022-08-26T03:58:00.298Z,884.7
2022-08-26T03:59:00.441Z,884.7
2022-08-26T04:00:00.308Z,884.7
2022-08-26T04:01:00.289Z,884.8
2022-08-26T04:02:00.388Z,884.8
2022-08-26T04:03:00.357Z,884.8
2022-08-26T04:04:00.902Z,884.8
2022-08-26T04:05:00.388Z,884.8
2022-08-26T04:06:00.283Z,884.8
2022-08-26T04:07:00.291Z,884.8
2022-08-26T04:08:00.295Z,884.8
2022-08-26T04:09:00.426Z,884.8
2022-08-26T04:10:00.325Z,884.8
2022-08-26T04:11:00.433Z,884.8
2022-08-26T04:12:00.278Z,884.8
2022-08-26T04:13:00.310Z,884.8
2022-08-26T04:14:00.283Z,884.8
2022-08-26T04:15:00.280Z,884.8
2022-08-26T04:16:00.327Z,884.9
2022-08-26T04:17:00.378Z,884.8
2022-08-26T04:18:00.279Z,884.9
2022-08-26T04:19:00.320Z,884.9
2022-08-26T04:20:00.283Z,884.9
2022-08-26T04:21:00.313Z,884.9
2022-08-26T04:22:00.342Z,884.9
2022-08-26T04:23:00.407Z,884.9
2022-08-26T04:24:00.454Z,884.9
2022-08-26T04:25:00.366Z,884.9
2022-08-26T04:26:00.307Z,884.9
2022-08-26T04:27:00.293Z,884.9
2022-08-26T04:28:00.312Z,884.9
2022-08-26T04:29:00.598Z,884.9
2022-08-26T04:30:00.309Z,884.9
2022-08-26T04:31:00.360Z,885.0
2022-08-26T04:32:00.309Z,885.0
2022-08-26T04:33:00.293Z,884.9
2022-08-26T04:34:00.302Z,884.9
2022-08-26T04:35:00.783Z,884.9
2022-08-26T04:36:00.391Z,884.9
2022-08-26T04:37:00.278Z,884.9
2022-08-26T04:38:00.294Z,884.9
2022-08-26T04:39:00.371Z,885.0
2022-08-26T04:40:00.422Z,885.0
2022-08-26T04:41:00.425Z,885.0
2022-08-26T04:42:00.387Z,885.0
2022-08-26T04:43:00.391Z,885.0
2022-08-26T04:44:00.361Z,885.0
2022-08-26T04:45:00.315Z,885.0
2022-08-26T04:46:00.341Z,885.0
2022-08-26T04:47:00.332Z,885.0
2022-08-26T04:48:00.373Z,885.0
2022-08-26T04:49:00.302Z,885.0
2022-08-26T04:50:00.304Z,885.0
2022-08-26T04:51:00.425Z,885.1
2022-08-26T04:52:00.307Z,885.1
2022-08-26T04:53:00.295Z,885.1
2022-08-26T04:54:00.435Z,885.1
2022-08-26T04:55:00.331Z,885.1
2022-08-26T04:56:00.373Z,885.1
2022-08-26T04:57:00.432Z,885.1
2022-08-26T04:58:00.319Z,885.1
2022-08-26T04:59:00.306Z,885.1
2022-08-26T05:00:00.512Z,885.1
2022-08-26T05:01:00.373Z,885.1
2022-08-26T05:02:00.342Z,885.0
2022-08-26T05:03:00.349Z,885.1
2022-08-26T05:04:00.436Z,885.0
2022-08-26T05:05:00.313Z,885.1
2022-08-26T05:06:00.363Z,885.1
2022-08-26T05:07:00.288Z,885.0
2022-08-26T05:08:00.320Z,885.0
2022-08-26T05:09:00.311Z,885.1
2022-08-26T05:10:00.341Z,885.1
2022-08-26T05:11:00.392Z,885.1
2022-08-26T05:12:00.459Z,885.1
2022-08-26T05:13:00.307Z,885.1
2022-08-26T05:14:02.329Z,885.1
2022-08-26T05:15:00.305Z,885.1
2022-08-26T05:16:01.468Z,885.1
2022-08-26T05:17:00.296Z,885.1
2022-08-26T05:18:00.396Z,885.1
2022-08-26T05:19:00.291Z,885.1
2022-08-26T05:20:00.283Z,885.1
2022-08-26T05:21:00.307Z,885.1
2022-08-26T05:22:00.298Z,885.1
2022-08-26T05:23:00.363Z,885.1
2022-08-26T05:24:00.375Z,885.1
2022-08-26T05:25:00.309Z,885.0
2022-08-26T05:26:00.573Z,885.1
2022-08-26T05:27:00.297Z,885.1
2022-08-26T05:28:00.313Z,885.0
2022-08-26T05:29:00.337Z,885.1
2022-08-26T05:30:00.461Z,885.0
2022-08-26T05:31:00.363Z,885.1
2022-08-26T05:32:00.311Z,885.1
2022-08-26T05:33:00.365Z,885.0
2022-08-26T05:34:00.428Z,885.1
2022-08-26T05:35:00.338Z,885.1
2022-08-26T05:36:00.332Z,885.1
2022-08-26T05:37:00.363Z,885.1
2022-08-26T05:38:00.389Z,885.0
2022-08-26T05:39:00.382Z,885.0
2022-08-26T05:40:00.438Z,885.0
2022-08-26T05:41:00.335Z,885.1
2022-08-26T05:42:00.280Z,885.1
2022-08-26T05:43:00.285Z,885.1
2022-08-26T05:44:00.302Z,885.1
2022-08-26T05:45:00.403Z,885.1
2022-08-26T05:46:00.353Z,885.1
2022-08-26T05:47:00.301Z,885.1
2022-08-26T05:48:00.299Z,885.1
2022-08-26T05:49:00.306Z,885.1
2022-08-26T05:50:00.332Z,885.1
2022-08-26T05:51:00.388Z,885.1
2022-08-26T05:52:00.340Z,885.1
2022-08-26T05:53:00.311Z,885.1
2022-08-26T05:54:00.430Z,885.1
2022-08-26T05:55:00.324Z,885.1
2022-08-26T05:56:00.373Z,885.1
2022-08-26T05:57:00.421Z,885.1
2022-08-26T05:58:00.371Z,885.1
2022-08-26T05:59:00.308Z,885.1
2022-08-26T06:00:00.307Z,885.1
2022-08-26T06:01:00.486Z,885.2
2022-08-26T06:02:00.330Z,885.2
2022-08-26T06:03:00.469Z,885.2
2022-08-26T06:04:01.745Z,885.2
2022-08-26T06:05:00.299Z,885.2
2022-08-26T06:06:00.408Z,885.1
2022-08-26T06:07:00.402Z,885.1
2022-08-26T06:08:00.316Z,885.1
2022-08-26T06:09:00.296Z,885.2
2022-08-26T06:10:28.331Z,885.1
2022-08-26T06:11:00.306Z,885.2
2022-08-26T06:12:00.312Z,885.2
2022-08-26T06:13:04.389Z,885.2
2022-08-26T06:14:03.515Z,885.2
2022-08-26T06:15:00.307Z,885.2
2022-08-26T06:16:00.396Z,885.1
2022-08-26T06:17:00.358Z,885.1
2022-08-26T06:18:00.399Z,885.1
2022-08-26T06:19:00.468Z,885.2
2022-08-26T06:20:00.305Z,885.1
2022-08-26T06:21:00.390Z,885.1
2022-08-26T06:22:00.305Z,885.2
2022-08-26T06:23:00.305Z,885.2
2022-08-26T06:24:00.408Z,885.1
2022-08-26T06:25:00.298Z,885.2
2022-08-26T06:26:00.393Z,885.1
2022-08-26T06:27:00.316Z,885.1
2022-08-26T06:28:00.304Z,885.2
2022-08-26T06:29:00.291Z,885.1
2022-08-26T06:30:00.488Z,885.1
2022-08-26T06:31:00.337Z,885.1
2022-08-26T06:32:00.297Z,885.1
2022-08-26T06:33:00.349Z,885.1
2022-08-26T06:34:00.301Z,885.2
2022-08-26T06:35:00.348Z,885.1
2022-08-26T06:36:00.418Z,885.0
2022-08-26T06:37:01.188Z,885.1
2022-08-26T06:38:00.397Z,885.1
2022-08-26T06:39:00.303Z,885.1
2022-08-26T06:40:00.425Z,885.1
2022-08-26T06:41:00.525Z,885.1
2022-08-26T06:42:00.309Z,885.1
2022-08-26T06:43:00.306Z,885.1
2022-08-26T06:44:00.404Z,885.1
2022-08-26T06:45:00.309Z,885.1
2022-08-26T06:46:00.369Z,885.1
2022-08-26T06:47:00.315Z,885.1
2022-08-26T06:48:00.318Z,885.1
2022-08-26T06:49:00.357Z,885.0
2022-08-26T06:50:00.398Z,885.0
2022-08-26T06:51:00.292Z,885.1
2022-08-26T06:52:00.437Z,885.1
2022-08-26T06:53:00.351Z,885.0
2022-08-26T06:54:00.319Z,885.0
2022-08-26T06:55:00.551Z,885.0
2022-08-26T06:56:00.397Z,885.0
2022-08-26T06:57:00.307Z,885.0
2022-08-26T06:58:00.432Z,885.0
2022-08-26T06:59:00.475Z,885.0
2022-08-26T07:00:00.664Z,885.0
2022-08-26T07:01:03.737Z,885.0
2022-08-26T07:02:00.401Z,885.0
2022-08-26T07:03:00.408Z,885.0
2022-08-26T07:04:00.462Z,885.0
2022-08-26T07:05:00.317Z,885.0
2022-08-26T07:06:00.379Z,885.0
2022-08-26T07:07:00.450Z,885.0
2022-08-26T07:08:00.293Z,884.9
2022-08-26T07:09:00.445Z,884.9
2022-08-26T07:10:00.369Z,884.9
2022-08-26T07:11:00.311Z,885.0
2022-08-26T07:12:00.313Z,885.0
2022-08-26T07:13:00.302Z,884.9
2022-08-26T07:14:00.389Z,884.9
2022-08-26T07:15:00.379Z,884.9
2022-08-26T07:16:03.019Z,884.9
2022-08-26T07:17:00.282Z,884.9
2022-08-26T07:18:00.308Z,884.9
2022-08-26T07:19:01.138Z,884.9
2022-08-26T07:20:00.320Z,884.9
2022-08-26T07:21:00.405Z,884.9
2022-08-26T07:22:00.372Z,884.8
2022-08-26T07:23:00.320Z,884.8
2022-08-26T07:24:01.398Z,884.9
2022-08-26T07:25:00.339Z,884.9
2022-08-26T07:26:00.340Z,884.8
2022-08-26T07:27:00.383Z,884.8
2022-08-26T07:28:00.314Z,884.8
2022-08-26T07:29:00.321Z,884.8
2022-08-26T07:30:00.358Z,884.8
2022-08-26T07:31:00.379Z,884.8
2022-08-26T07:32:00.361Z,884.7
2022-08-26T07:33:00.471Z,884.7
2022-08-26T07:34:00.313Z,884.8
2022-08-26T07:35:00.280Z,884.8
2022-08-26T07:36:00.321Z,884.8
2022-08-26T07:37:00.387Z,884.8
2022-08-26T07:38:00.293Z,884.7
2022-08-26T07:39:00.381Z,884.7
2022-08-26T07:40:00.381Z,884.8
2022-08-26T07:41:00.297Z,884.7
2022-08-26T07:42:00.304Z,884.7
2022-08-26T07:43:00.941Z,884.7
2022-08-26T07:44:00.346Z,884.7
2022-08-26T07:45:00.573Z,884.7
2022-08-26T07:46:00.386Z,884.7
2022-08-26T07:47:00.327Z,884.6
2022-08-26T07:48:00.296Z,884.6
2022-08-26T07:49:00.355Z,884.6
2022-08-26T07:50:00.297Z,884.6
2022-08-26T07:51:00.379Z,884.6
2022-08-26T07:52:00.361Z,884.6
2022-08-26T07:53:00.304Z,884.6
2022-08-26T07:54:00.386Z,884.6
2022-08-26T07:55:00.278Z,884.6
2022-08-26T07:56:00.297Z,884.6
2022-08-26T07:57:00.409Z,884.6
2022-08-26T07:58:00.290Z,884.5
2022-08-26T07:59:00.290Z,884.5
2022-08-26T08:00:00.356Z,884.5
2022-08-26T08:01:00.337Z,884.5
2022-08-26T08:02:00.423Z,884.5
2022-08-26T08:03:00.405Z,884.5
2022-08-26T08:04:00.313Z,884.5
2022-08-26T08:05:00.479Z,884.5
2022-08-26T08:06:00.360Z,884.5
2022-08-26T08:07:00.394Z,884.4
2022-08-26T08:08:00.867Z,884.4
2022-08-26T08:09:00.466Z,884.4
2022-08-26T08:10:00.319Z,884.4
2022-08-26T08:11:00.408Z,884.4
2022-08-26T08:12:00.317Z,884.4
2022-08-26T08:13:00.421Z,884.4
2022-08-26T08:14:00.294Z,884.4
2022-08-26T08:15:00.382Z,884.4
2022-08-26T08:16:00.286Z,884.4
2022-08-26T08:17:00.399Z,884.4
2022-08-26T08:18:00.976Z,884.4
2022-08-26T08:19:00.309Z,884.3
2022-08-26T08:20:00.288Z,884.4
2022-08-26T08:21:21.432Z,884.3
2022-08-26T08:22:00.317Z,884.3
2022-08-26T08:23:00.311Z,884.3
2022-08-26T08:24:00.384Z,884.3
2022-08-26T08:25:00.313Z,884.3
2022-08-26T08:26:00.315Z,884.2
2022-08-26T08:27:00.382Z,884.3
2022-08-26T08:28:00.331Z,884.2
2022-08-26T08:29:00.304Z,884.2
2022-08-26T08:30:00.360Z,884.2
2022-08-26T08:31:00.516Z,884.2
2022-08-26T08:32:00.345Z,884.2
2022-08-26T08:33:00.441Z,884.2
2022-08-26T08:34:00.394Z,884.2
2022-08-26T08:35:00.366Z,884.2
2022-08-26T08:36:00.388Z,884.2
2022-08-26T08:37:00.333Z,884.2
2022-08-26T08:38:00.291Z,884.1
2022-08-26T08:39:00.444Z,884.1
2022-08-26T08:40:00.568Z,884.2
2022-08-26T08:41:00.310Z,884.2
2022-08-26T08:42:00.306Z,884.2
2022-08-26T08:43:00.342Z,884.1
2022-08-26T08:44:00.318Z,884.1
2022-08-26T08:45:00.397Z,884.1
2022-08-26T08:46:00.468Z,884.1
2022-08-26T08:47:00.354Z,884.1
2022-08-26T08:48:00.389Z,884.1
2022-08-26T08:49:00.299Z,884.1
2022-08-26T08:50:00.373Z,884.1
2022-08-26T08:51:00.300Z,884.1
2022-08-26T08:52:00.383Z,884.1
2022-08-26T08:53:00.288Z,884.1
2022-08-26T08:54:00.293Z,884.1
2022-08-26T08:55:00.320Z,884.1
2022-08-26T08:56:00.311Z,884.1
2022-08-26T08:57:00.296Z,884.1
2022-08-26T08:58:02.205Z,884.1
2022-08-26T08:59:00.301Z,884.0
2022-08-26T09:00:00.324Z,884.0
2022-08-26T09:01:00.416Z,884.0
2022-08-26T09:02:00.397Z,884.0
2022-08-26T09:03:00.393Z,884.0
2022-08-26T09:04:00.466Z,884.0
2022-08-26T09:05:00.367Z,884.0
2022-08-26T09:06:00.294Z,884.0
2022-08-26T09:07:00.314Z,884.0
2022-08-26T09:08:00.303Z,884.0
2022-08-26T09:09:00.379Z,884.0
2022-08-26T09:10:00.288Z,883.9
2022-08-26T09:11:00.441Z,883.9
2022-08-26T09:12:00.327Z,883.9
2022-08-26T09:13:00.327Z,884.0
2022-08-26T09:14:00.534Z,883.9
2022-08-26T09:15:00.403Z,883.9
2022-08-26T09:16:00.322Z,883.9
2022-08-26T09:17:00.373Z,883.9
2022-08-26T09:18:00.704Z,883.9
2022-08-26T09:19:00.309Z,883.9
2022-08-26T09:20:00.326Z,883.9
2022-08-26T09:21:00.392Z,883.8
2022-08-26T09:22:00.302Z,883.8
2022-08-26T09:23:01.654Z,883.8
2022-08-26T09:24:00.616Z,883.8
2022-08-26T09:25:00.319Z,883.8
2022-08-26T09:26:00.420Z,883.8
2022-08-26T09:27:00.296Z,883.8
2022-08-26T09:28:00.320Z,883.8
2022-08-26T09:29:00.405Z,883.7
2022-08-26T09:30:00.319Z,883.7
2022-08-26T09:31:00.425Z,883.7
2022-08-26T09:32:00.396Z,883.7
2022-08-26T09:33:00.416Z,883.7
2022-08-26T09:34:00.407Z,883.7
2022-08-26T09:35:00.675Z,883.7
2022-08-26T09:36:00.405Z,883.7
2022-08-26T09:37:00.311Z,883.6
2022-08-26T09:38:00.442Z,883.6
2022-08-26T09:39:00.446Z,883.6
2022-08-26T09:40:00.445Z,883.6
2022-08-26T09:41:00.422Z,883.6
2022-08-26T09:42:00.482Z,883.6
2022-08-26T09:43:00.473Z,883.5
2022-08-26T09:44:00.428Z,883.5
2022-08-26T09:45:00.421Z,883.5
2022-08-26T09:46:00.571Z,883.5
2022-08-26T09:47:00.582Z,883.5
2022-08-26T09:48:04.951Z,883.5
2022-08-26T09:49:00.297Z,883.5
2022-08-26T09:50:00.378Z,883.5
2022-08-26T09:51:00.352Z,883.5
2022-08-26T09:52:00.759Z,883.4
2022-08-26T09:53:00.385Z,883.4
2022-08-26T09:54:00.339Z,883.4
2022-08-26T09:55:00.438Z,883.4
2022-08-26T09:56:00.351Z,883.4
2022-08-26T09:57:00.441Z,883.3
2022-08-26T09:58:08.711Z,883.4
2022-08-26T09:59:00.338Z,883.4
2022-08-26T10:00:00.417Z,883.4
2022-08-26T10:01:00.576Z,883.4
2022-08-26T10:03:00.332Z,883.4
2022-08-26T10:04:00.527Z,883.4
2022-08-26T10:05:09.107Z,883.4
2022-08-26T10:06:00.311Z,883.4
2022-08-26T10:07:00.529Z,883.4
2022-08-26T10:08:00.495Z,883.3
2022-08-26T10:09:01.397Z,883.3
2022-08-26T10:10:00.570Z,883.3
2022-08-26T10:11:00.446Z,883.3
2022-08-26T10:12:00.516Z,883.3
2022-08-26T10:13:00.406Z,883.3
2022-08-26T10:14:00.361Z,883.3
2022-08-26T10:15:00.442Z,883.3
2022-08-26T10:16:00.537Z,883.2
2022-08-26T10:17:00.572Z,883.3
2022-08-26T10:18:00.518Z,883.2
2022-08-26T10:19:00.658Z,883.2
2022-08-26T10:20:00.448Z,883.2
2022-08-26T10:21:00.382Z,883.2
2022-08-26T10:22:00.626Z,883.2
2022-08-26T10:23:00.485Z,883.1
2022-08-26T10:24:00.376Z,883.1
2022-08-26T10:25:00.380Z,883.1
2022-08-26T10:26:00.385Z,883.1
2022-08-26T10:27:00.648Z,883.1
2022-08-26T10:28:00.393Z,883.1
2022-08-26T10:29:00.305Z,883.1
2022-08-26T10:30:00.276Z,883.0
2022-08-26T10:31:00.278Z,883.0
2022-08-26T10:32:02.497Z,883.0
2022-08-26T10:33:00.294Z,883.0
2022-08-26T10:34:00.749Z,883.0
2022-08-26T10:35:00.296Z,883.0
2022-08-26T10:36:00.276Z,883.0
2022-08-26T10:37:14.592Z,883.1
2022-08-26T10:38:00.335Z,883.0
2022-08-26T10:39:00.300Z,882.9
2022-08-26T10:40:00.421Z,883.0
2022-08-26T10:41:00.421Z,882.9
2022-08-26T10:42:00.291Z,882.9
2022-08-26T10:43:00.383Z,882.9
2022-08-26T10:44:00.931Z,882.9
2022-08-26T10:45:00.369Z,882.9
2022-08-26T10:46:00.367Z,882.9
2022-08-26T10:47:00.378Z,882.9
2022-08-26T10:48:00.319Z,882.9
2022-08-26T10:49:00.282Z,882.9
2022-08-26T10:50:02.956Z,882.9
2022-08-26T10:51:00.395Z,882.9
2022-08-26T10:52:00.341Z,882.9
2022-08-26T10:53:00.376Z,882.9
2022-08-26T10:54:00.293Z,882.8
2022-08-26T10:55:00.303Z,882.8
2022-08-26T10:56:00.278Z,882.8
2022-08-26T10:57:00.689Z,882.8
2022-08-26T10:58:00.289Z,882.8
2022-08-26T10:59:00.274Z,882.8
2022-08-26T11:00:00.306Z,882.7
2022-08-26T11:01:00.306Z,882.7
2022-08-26T11:02:00.289Z,882.7
2022-08-26T11:03:00.401Z,882.7
2022-08-26T11:04:00.436Z,882.7
2022-08-26T11:05:00.777Z,882.7
2022-08-26T11:06:00.274Z,882.7
2022-08-26T11:07:00.302Z,882.6
2022-08-26T11:08:00.296Z,882.7
2022-08-26T11:09:00.820Z,882.6
2022-08-26T11:10:00.322Z,882.6
2022-08-26T11:11:00.328Z,882.6
2022-08-26T11:12:03.893Z,882.6
2022-08-26T11:13:00.362Z,882.6
2022-08-26T11:14:00.376Z,882.6
2022-08-26T11:15:00.284Z,882.5
2022-08-26T11:16:01.106Z,882.5
2022-08-26T11:17:00.438Z,882.6
2022-08-26T11:18:00.537Z,882.5
2022-08-26T11:19:00.275Z,882.5
2022-08-26T11:20:01.963Z,882.5
2022-08-26T11:21:00.290Z,882.5
2022-08-26T11:22:00.291Z,882.5
2022-08-26T11:23:00.434Z,882.5
2022-08-26T11:24:00.286Z,882.5
2022-08-26T11:25:00.428Z,882.5
2022-08-26T11:26:00.446Z,882.5
2022-08-26T11:27:00.419Z,882.4
2022-08-26T11:28:00.679Z,882.4
2022-08-26T11:29:00.418Z,882.4
2022-08-26T11:30:00.295Z,882.4
2022-08-26T11:31:00.299Z,882.4
2022-08-26T11:32:00.340Z,882.4
2022-08-26T11:33:00.306Z,882.4
2022-08-26T11:34:00.286Z,882.4
2022-08-26T11:35:00.565Z,882.4
2022-08-26T11:36:00.384Z,882.3
2022-08-26T11:37:00.443Z,882.3
2022-08-26T11:38:00.509Z,882.4
2022-08-26T11:39:00.287Z,882.4
2022-08-26T11:40:00.387Z,882.4
2022-08-26T11:41:00.477Z,882.3
2022-08-26T11:42:00.398Z,882.4
2022-08-26T11:43:00.420Z,882.3
2022-08-26T11:44:01.252Z,882.3
2022-08-26T11:45:03.507Z,882.3
2022-08-26T11:46:00.407Z,882.3
2022-08-26T11:47:00.367Z,882.3
2022-08-26T11:48:00.418Z,882.3
2022-08-26T11:49:00.417Z,882.3
2022-08-26T11:50:00.407Z,882.2
2022-08-26T11:51:00.363Z,882.2
2022-08-26T11:52:00.298Z,882.3
2022-08-26T11:53:00.314Z,882.3
2022-08-26T11:54:00.291Z,882.2
2022-08-26T11:55:00.368Z,882.2
2022-08-26T11:56:00.404Z,882.2
2022-08-26T11:57:02.102Z,882.2
2022-08-26T11:58:00.454Z,882.2
2022-08-26T11:59:00.299Z,882.2
2022-08-26T12:00:00.313Z,882.2
2022-08-26T12:01:00.381Z,882.2
2022-08-26T12:02:00.281Z,882.1
2022-08-26T12:03:00.291Z,882.1
2022-08-26T12:04:00.993Z,882.1
2022-08-26T12:05:00.313Z,882.1
2022-08-26T12:06:00.297Z,882.1
2022-08-26T12:07:00.379Z,882.1
2022-08-26T12:08:00.302Z,882.1
2022-08-26T12:09:00.293Z,882.0
2022-08-26T12:10:00.594Z,882.0
2022-08-26T12:11:00.292Z,882.0
2022-08-26T12:12:00.302Z,882.0
2022-08-26T12:13:00.387Z,882.0
2022-08-26T12:14:00.311Z,882.0
2022-08-26T12:15:00.277Z,882.1
2022-08-26T12:16:00.353Z,882.1
2022-08-26T12:17:00.299Z,882.0
2022-08-26T12:18:00.386Z,882.0
2022-08-26T12:19:00.429Z,882.0
2022-08-26T12:20:00.324Z,882.0
2022-08-26T12:21:00.286Z,882.0
2022-08-26T12:22:00.310Z,882.0
2022-08-26T12:23:00.312Z,882.0
2022-08-26T12:24:00.389Z,881.9
2022-08-26T12:25:00.399Z,882.0
2022-08-26T12:26:00.331Z,882.0
2022-08-26T12:27:00.305Z,882.0
2022-08-26T12:28:00.300Z,881.9
2022-08-26T12:29:00.326Z,881.9
2022-08-26T12:30:00.370Z,881.9
2022-08-26T12:31:00.983Z,881.9
2022-08-26T12:32:00.365Z,881.9
2022-08-26T12:33:00.325Z,881.9
2022-08-26T12:34:00.289Z,881.9
2022-08-26T12:35:00.407Z,881.9
2022-08-26T12:36:00.298Z,881.9
2022-08-26T12:38:00.309Z,881.8
2022-08-26T12:39:00.297Z,881.9
2022-08-26T12:40:00.383Z,881.8
2022-08-26T12:41:00.651Z,881.8
2022-08-26T12:42:00.312Z,881.8
2022-08-26T12:43:00.319Z,881.8
2022-08-26T12:44:00.301Z,881.8
2022-08-26T12:45:00.413Z,881.8
2022-08-26T12:46:00.450Z,881.8
2022-08-26T12:47:00.319Z,881.8
2022-08-26T12:48:00.289Z,881.8
2022-08-26T12:49:00.295Z,881.8
2022-08-26T12:50:00.300Z,881.8
2022-08-26T12:51:00.568Z,881.8
2022-08-26T12:52:00.340Z,881.8
2022-08-26T12:53:00.344Z,881.8
2022-08-26T12:54:00.339Z,881.8